YMMLYSCB

Guest
Details From YMML - Melbourne Intl
To YSCB - Canberra
Flight Number -
Tags Generated
Created
Modified
Stats Distance 254 nm / 470 km
Max Altitude 0 ft / 0 m
Waypoints 3
Social Downloads 7
Likes 0
Share VATSIM

Download

Looking for another format? Having issues loading an existing format? Contact us
Advertisement - Login to hide

Notes

Generated

Route

YMML FALLS YSCB

ID Type Via Altitude Latitude Longitude Leg Dist Tot Dist Heading (true) Name
O YMML APT - 0 ft / 0 m -37.66220˚ 144.84819˚ - 0 nm - -
FALLS FIX - 0 ft / 0 m -35.47639˚ 148.89083˚ 235 nm 235 nm 57° / 55° -
O YSCB APT - 0 ft / 0 m -35.29060˚ 149.19447˚ 18 nm 253 nm 53° / 53° -

Altitude Profile

Advertisement - Login to hide

Weather


0- 5 10 15 20 25 30 35+ Temperature / ° C

Clouds and Precipitation
Forecast for 2018-05-27 12:00 UTC. Updated 4 hours ago

Ground ~20,000 ft ~40,000 ft Winds

YMML

Details ICAO YMML (MEL)
Name Melbourne Intl
Region Australia
Timezone Australia/Melbourne (UTC+10.0)
Stats Elevation 433 ft / 132 m (AMSL)
Location -37.665301° 144.836668°
Runways 2
Magnetic Variation 11.508° E

METAR

YMML 271430Z 36014KT CAVOK 15/07 Q1021 FM1430 MOD TURB BLW 5000FT

Decode

TAF

TAF YMML 271117Z 2712/2818 01016G28KT CAVOK FM281200 01024G42KT 9999 -SHRA NSC

Decode

Departure Runways

ID Width Length Bearing (true) Bearing (mag) Surface Threshold Offset Overrun Length
09 148 ft / 45 m 7,494 ft / 2,284 m 94.01° 82.50° Asphalt 0 ft / 0 m 0 ft / 0 m
16 148 ft / 45 m 12,008 ft / 3,660 m 171.02° 159.51° Asphalt 98 ft / 30 m 0 ft / 0 m
27 148 ft / 45 m 7,494 ft / 2,284 m 274.00° 262.49° Asphalt 0 ft / 0 m 0 ft / 0 m
34 148 ft / 45 m 12,008 ft / 3,660 m 351.01° 339.50° Asphalt 98 ft / 30 m 0 ft / 0 m

YSCB

Details ICAO YSCB (CBR)
Name Canberra
Region Australia
Timezone Australia/Sydney (UTC+10.0)
Stats Elevation 1,887 ft / 575 m (AMSL)
Location -35.305478° 149.193342°
Runways 2
Magnetic Variation 12.407° E

METAR

YSCB 271430Z AUTO 03003KT 9999 // NCD 03/02 Q1026

Decode

TAF

TAF YSCB 271132Z 2712/2812 VRB03KT CAVOK FM280200 33010KT CAVOK

Decode

Destination Runways

ID Width Length Bearing (true) Bearing (mag) Surface Threshold Offset Overrun Length
12 148 ft / 45 m 5,508 ft / 1,679 m 130.00° 117.59° Asphalt 0 ft / 0 m 0 ft / 0 m
17 148 ft / 45 m 10,793 ft / 3,290 m 180.00° 167.59° Asphalt 0 ft / 0 m 0 ft / 0 m
30 148 ft / 45 m 5,508 ft / 1,679 m 310.00° 297.59° Asphalt 226 ft / 69 m 0 ft / 0 m
35 148 ft / 45 m 10,793 ft / 3,290 m 0.00° 347.59° Asphalt 1,998 ft / 609 m 0 ft / 0 m

Approach Navaids

Runway Type Ident Frequency Range Bearing (true) Bearing (mag) Slope Elevation
35 Localiser ICB 109.50 MHz 18 nm / 33 km 360.00° 347.59° - 1,888 ft / 575 m (AMSL)
35 Glidescope ICB 109.50 MHz 10 nm / 19 km 180.00° 167.59° 3.00° 1,888 ft / 575 m (AMSL)
35 DME ICB 109.50 MHz 18 nm / 33 km - - - 1,888 ft / 575 m (AMSL)

Popular Alternatives